Vaughan, Canada
Current Conditions -  °F | °C
As of 10:00 AM on Thursday 18 Dec 2014 (Local Time) from CYYZ Reporting Station
Broken Clouds Broken Clouds  
Wind Chill: 19°   Ceiling: 2200
Heat Index: 30°   Visibility: 15mi
Dew Point: 23°   Wind: 16mph
Humidity: 75%   Direction: 310°NW
Pressure: 30.1"   Gusts: NA
Location:  43.79°N, 79.54°W
Report Text: CYYZ 181500Z 31014KT 15SM BKN022 BKN045 M01/M05 A3010 RMK SF6SC1 SLP201
Loading
Personal Weather Stations






























Interactive Weather Map New forecast layout! Learn more

10-Day Weather Forecast

Advertisements
Track Severe Weather on mobile